CYZFCYVQ

Guest
Details From CYZF - YELLOWKNIFE
To CYVQ - NORMAN WELLS
Flight Number -
Tags generated
Created
Modified
Stats Distance 367 nm / 680 km
Max Altitude 18,000 ft / 5,486 m
Waypoints 4
Social Downloads 0
Likes 0
Share VATSIM

Download

Looking for another format? Having issues loading an existing format? Contact us
Advertisement - Login to hide

Notes

Basic altitude profile: - Ascent Rate: 2500ft/min - Ascent Speed: 250kts - Cruise Altitude: 35000ft - Cruise Speed: 420kts - Descent Rate: 1500ft/min - Descent Speed: 250kts Options: - Use NATs: yes - Use PACOTS: yes - Use low airways: yes - Use high airways: yes

Route

CYZF YZF 5E71 YVQ CYVQ

ID Type Via Altitude Latitude Longitude Leg Dist Tot Dist Heading (true) Name
O CYZF APT - 0 ft / 0 m 62.46567˚ -114.44142˚ - 0 nm - YELLOWKNIFE
YZF VOR - 0 ft / 0 m 62.46500˚ -114.43667˚ 0 nm 0 nm 107° / 107° YELLOWKNIFE VORTAC
YVQ VOR 5E71 (AWY-HI) 18,000 ft / 5,486 m 65.26497˚ -126.72411˚ 365 nm 365 nm 303° / 292° NORMAN WELLS VOR-DME
O CYVQ APT - 0 ft / 0 m 65.28162˚ -126.79822˚ 2 nm 367 nm 298° / 298° NORMAN WELLS

Altitude Profile

Advertisement - Login to hide

Weather


0- 5 10 15 20 25 30 35+ Temperature / ° C

Clouds and Precipitation
Forecast for 2017-12-16 12:00 UTC. Updated 32 minutes ago

Ground ~20,000 ft ~40,000 ft Winds

CYZF

Details ICAO CYZF (YZF)
Name YELLOWKNIFE
Region Canada
Timezone America/Yellowknife (UTC-7.0)
Stats Elevation 675 ft / 206 m (AMSL)
Location 62.465666° -114.441417°
Runways 2
Magnetic Variation 16.583° E

METAR

CYZF 160700Z 36005KT 15SM -SN FEW020 BKN040 OVC095 M16/M18 A2968 RMK SC2SC4AC2 SLP076

Decode

TAF

TAF CYZF 160538Z 1606/1706 02007KT P6SM SCT030 BKN070 TEMPO 1606/1620 6SM -SN BKN030 FM162000 13012KT P6SM -SN OVC025 TEMPO 1620/1706 3SM -SN OVC020 RMK NXT FCST BY 161200Z

Decode

Departure Runways

ID Width Length Bearing (true) Bearing (mag) Surface Threshold Offset Overrun Length
09 150 ft / 46 m 4,902 ft / 1,494 m 116.52° 99.94° Asphalt 0 ft / 0 m 0 ft / 0 m
15 150 ft / 46 m 7,441 ft / 2,268 m 175.66° 159.08° Asphalt 0 ft / 0 m 0 ft / 0 m
27 150 ft / 46 m 4,902 ft / 1,494 m 296.54° 279.96° Asphalt 0 ft / 0 m 0 ft / 0 m
33 150 ft / 46 m 7,441 ft / 2,268 m 355.67° 339.09° Asphalt 0 ft / 0 m 0 ft / 0 m

CYVQ

Details ICAO CYVQ (YVQ)
Name NORMAN WELLS
Region Canada
Timezone America/Yellowknife (UTC-7.0)
Stats Elevation 238 ft / 73 m (AMSL)
Location 65.281616° -126.798222°
Runways 1
Magnetic Variation 21.031° E

METAR

CYVQ 160700Z 08003KT 30SM FEW014 FEW180 M15/M17 A2976 RMK SC1AC1 SC TR SLP086

Decode

TAF

TAF CYVQ 160538Z 1606/1618 27005KT P6SM SCT015 BKN050 OVC100 TEMPO 1606/1612 5SM -SN BKN015 OVC040 FM161200 VRB03KT P6SM SCT020 RMK NXT FCST BY 161200Z

Decode

Destination Runways

ID Width Length Bearing (true) Bearing (mag) Surface Threshold Offset Overrun Length
09 150 ft / 46 m 5,977 ft / 1,822 m 118.74° 97.71° Asphalt 0 ft / 0 m 0 ft / 0 m
27 150 ft / 46 m 5,977 ft / 1,822 m 298.78° 277.75° Asphalt 0 ft / 0 m 0 ft / 0 m

Popular Alternatives